sensor_id;sensor_type;location;lat;lon;timestamp;pressure;altitude;pressure_sealevel;temperature;humidity
47218;BME280;47282;53.362;-2.222;2022-09-01T00:01:41;101721.77;;;13.41;57.35
47218;BME280;47282;53.362;-2.222;2022-09-01T00:04:12;101720.93;;;13.39;57.40
47218;BME280;47282;53.362;-2.222;2022-09-01T00:06:41;101719.81;;;13.37;57.36
47218;BME280;47282;53.362;-2.222;2022-09-01T00:09:12;101719.16;;;13.34;57.45
47218;BME280;47282;53.362;-2.222;2022-09-01T00:11:43;101716.96;;;13.31;57.61
47218;BME280;47282;53.362;-2.222;2022-09-01T00:14:12;101716.48;;;13.29;57.66
47218;BME280;47282;53.362;-2.222;2022-09-01T00:16:41;101719.26;;;13.74;57.73
47218;BME280;47282;53.362;-2.222;2022-09-01T00:19:14;101719.45;;;13.46;57.81
47218;BME280;47282;53.362;-2.222;2022-09-01T00:21:44;101719.03;;;13.21;57.92
47218;BME280;47282;53.362;-2.222;2022-09-01T00:24:14;101717.89;;;13.17;57.99
47218;BME280;47282;53.362;-2.222;2022-09-01T00:26:43;101716.45;;;13.15;58.07
47218;BME280;47282;53.362;-2.222;2022-09-01T00:29:12;101714.41;;;13.63;58.16
47218;BME280;47282;53.362;-2.222;2022-09-01T00:31:42;101711.16;;;13.10;58.18
47218;BME280;47282;53.362;-2.222;2022-09-01T00:34:10;101707.72;;;13.29;58.19
47218;BME280;47282;53.362;-2.222;2022-09-01T00:36:39;101707.31;;;13.26;58.23
47218;BME280;47282;53.362;-2.222;2022-09-01T00:39:08;101704.21;;;13.00;58.34
47218;BME280;47282;53.362;-2.222;2022-09-01T00:41:39;101706.50;;;13.20;58.33
47218;BME280;47282;53.362;-2.222;2022-09-01T00:44:10;101705.20;;;13.18;58.42
47218;BME280;47282;53.362;-2.222;2022-09-01T00:46:41;101701.31;;;12.90;58.57
47218;BME280;47282;53.362;-2.222;2022-09-01T00:49:23;101701.23;;;13.36;58.69
47218;BME280;47282;53.362;-2.222;2022-09-01T00:51:58;101701.00;;;13.11;58.85
47218;BME280;47282;53.362;-2.222;2022-09-01T00:54:33;101695.31;;;13.44;58.83
47218;BME280;47282;53.362;-2.222;2022-09-01T00:57:03;101690.30;;;12.99;58.91
47218;BME280;47282;53.362;-2.222;2022-09-01T00:59:32;101684.14;;;13.04;59.10
47218;BME280;47282;53.362;-2.222;2022-09-01T01:02:00;101687.83;;;13.15;59.12
47218;BME280;47282;53.362;-2.222;2022-09-01T01:04:28;101684.82;;;13.42;59.31
47218;BME280;47282;53.362;-2.222;2022-09-01T01:06:58;101684.00;;;13.29;59.30
47218;BME280;47282;53.362;-2.222;2022-09-01T01:09:29;101683.07;;;13.39;59.18
47218;BME280;47282;53.362;-2.222;2022-09-01T01:11:59;101680.02;;;13.52;59.14
47218;BME280;47282;53.362;-2.222;2022-09-01T01:14:28;101680.10;;;13.65;59.17
47218;BME280;47282;53.362;-2.222;2022-09-01T01:16:58;101680.05;;;13.78;59.16
47218;BME280;47282;53.362;-2.222;2022-09-01T01:19:38;101682.35;;;13.64;59.36
47218;BME280;47282;53.362;-2.222;2022-09-01T01:22:12;101679.23;;;14.02;59.23
47218;BME280;47282;53.362;-2.222;2022-09-01T01:24:41;101676.66;;;13.84;59.16
47218;BME280;47282;53.362;-2.222;2022-09-01T01:27:09;101672.93;;;13.88;59.34
47218;BME280;47282;53.362;-2.222;2022-09-01T01:29:37;101667.30;;;14.15;59.18
47218;BME280;47282;53.362;-2.222;2022-09-01T01:32:06;101668.72;;;13.88;59.42
47218;BME280;47282;53.362;-2.222;2022-09-01T01:34:34;101666.13;;;13.88;59.28
47218;BME280;47282;53.362;-2.222;2022-09-01T01:37:02;101670.53;;;13.87;59.40
47218;BME280;47282;53.362;-2.222;2022-09-01T01:39:30;101670.21;;;14.13;59.44
47218;BME280;47282;53.362;-2.222;2022-09-01T01:41:59;101670.68;;;14.12;59.40
47218;BME280;47282;53.362;-2.222;2022-09-01T01:44:27;101671.29;;;14.10;59.36
47218;BME280;47282;53.362;-2.222;2022-09-01T01:46:56;101673.30;;;14.10;59.38
47218;BME280;47282;53.362;-2.222;2022-09-01T01:49:26;101670.54;;;13.82;59.39
47218;BME280;47282;53.362;-2.222;2022-09-01T01:51:54;101664.56;;;13.80;59.41
47218;BME280;47282;53.362;-2.222;2022-09-01T01:54:23;101665.64;;;14.04;59.43
47218;BME280;47282;53.362;-2.222;2022-09-01T01:56:52;101661.95;;;13.75;59.45
47218;BME280;47282;53.362;-2.222;2022-09-01T01:59:20;101661.61;;;13.73;59.52
47218;BME280;47282;53.362;-2.222;2022-09-01T02:01:48;101659.87;;;13.72;59.62
47218;BME280;47282;53.362;-2.222;2022-09-01T02:04:17;101660.72;;;13.97;59.62
47218;BME280;47282;53.362;-2.222;2022-09-01T02:06:47;101663.67;;;13.94;59.76
47218;BME280;47282;53.362;-2.222;2022-09-01T02:09:18;101662.32;;;13.94;59.72
47218;BME280;47282;53.362;-2.222;2022-09-01T02:11:47;101659.90;;;13.99;59.75
47218;BME280;47282;53.362;-2.222;2022-09-01T02:14:15;101657.47;;;14.04;59.68
47218;BME280;47282;53.362;-2.222;2022-09-01T02:16:43;101653.16;;;14.06;59.60
47218;BME280;47282;53.362;-2.222;2022-09-01T02:19:12;101653.59;;;13.83;59.57
47218;BME280;47282;53.362;-2.222;2022-09-01T02:21:40;101654.11;;;14.12;59.51
47218;BME280;47282;53.362;-2.222;2022-09-01T02:24:08;101647.63;;;14.12;59.39
47218;BME280;47282;53.362;-2.222;2022-09-01T02:26:39;101645.84;;;14.13;59.37
47218;BME280;47282;53.362;-2.222;2022-09-01T02:29:10;101641.68;;;13.65;59.34
47218;BME280;47282;53.362;-2.222;2022-09-01T02:31:38;101639.36;;;14.15;59.30
47218;BME280;47282;53.362;-2.222;2022-09-01T02:34:08;101635.47;;;13.90;59.31
47218;BME280;47282;53.362;-2.222;2022-09-01T02:36:37;101638.76;;;14.17;59.32
47218;BME280;47282;53.362;-2.222;2022-09-01T02:39:05;101632.97;;;13.91;59.35
47218;BME280;47282;53.362;-2.222;2022-09-01T02:41:34;101624.97;;;14.19;59.34
47218;BME280;47282;53.362;-2.222;2022-09-01T02:44:02;101626.12;;;13.92;59.51
47218;BME280;47282;53.362;-2.222;2022-09-01T02:46:31;101626.97;;;13.88;59.58
47218;BME280;47282;53.362;-2.222;2022-09-01T02:48:59;101625.53;;;14.10;59.64
47218;BME280;47282;53.362;-2.222;2022-09-01T02:51:27;101629.76;;;13.77;59.61
47218;BME280;47282;53.362;-2.222;2022-09-01T02:53:55;101625.61;;;13.71;59.71
47218;BME280;47282;53.362;-2.222;2022-09-01T02:56:25;101628.50;;;13.64;59.82
47218;BME280;47282;53.362;-2.222;2022-09-01T02:58:54;101632.11;;;13.83;59.98
47218;BME280;47282;53.362;-2.222;2022-09-01T03:01:24;101630.18;;;13.78;60.07
47218;BME280;47282;53.362;-2.222;2022-09-01T03:03:55;101628.31;;;13.74;60.17
47218;BME280;47282;53.362;-2.222;2022-09-01T03:06:24;101624.49;;;13.70;60.35
47218;BME280;47282;53.362;-2.222;2022-09-01T03:08:55;101625.19;;;13.67;60.42
47218;BME280;47282;53.362;-2.222;2022-09-01T03:11:23;101622.28;;;13.63;60.56
47218;BME280;47282;53.362;-2.222;2022-09-01T03:13:52;101622.81;;;13.62;60.70
47218;BME280;47282;53.362;-2.222;2022-09-01T03:16:20;101624.79;;;13.58;60.75
47218;BME280;47282;53.362;-2.222;2022-09-01T03:18:49;101622.99;;;13.77;60.74
47218;BME280;47282;53.362;-2.222;2022-09-01T03:21:18;101621.83;;;13.52;60.87
47218;BME280;47282;53.362;-2.222;2022-09-01T03:23:48;101619.84;;;13.47;60.91
47218;BME280;47282;53.362;-2.222;2022-09-01T03:26:19;101620.42;;;13.40;60.96
47218;BME280;47282;53.362;-2.222;2022-09-01T03:28:48;101617.73;;;13.35;61.01
47218;BME280;47282;53.362;-2.222;2022-09-01T03:31:17;101616.67;;;13.28;61.04
47218;BME280;47282;53.362;-2.222;2022-09-01T03:33:46;101615.00;;;13.22;61.15
47218;BME280;47282;53.362;-2.222;2022-09-01T03:36:15;101613.41;;;13.17;61.23
47218;BME280;47282;53.362;-2.222;2022-09-01T03:38:44;101613.26;;;13.11;61.23
47218;BME280;47282;53.362;-2.222;2022-09-01T03:41:13;101616.47;;;13.26;61.32
47218;BME280;47282;53.362;-2.222;2022-09-01T03:43:42;101614.56;;;13.48;61.54
47218;BME280;47282;53.362;-2.222;2022-09-01T03:46:10;101614.64;;;13.44;61.59
47218;BME280;47282;53.362;-2.222;2022-09-01T03:48:38;101613.37;;;12.90;61.66
47218;BME280;47282;53.362;-2.222;2022-09-01T03:51:07;101611.19;;;12.85;61.72
47218;BME280;47282;53.362;-2.222;2022-09-01T03:53:38;101611.51;;;12.80;61.70
47218;BME280;47282;53.362;-2.222;2022-09-01T03:56:06;101609.07;;;12.97;61.78
47218;BME280;47282;53.362;-2.222;2022-09-01T03:58:35;101607.44;;;13.18;61.89
47218;BME280;47282;53.362;-2.222;2022-09-01T04:01:03;101603.30;;;12.86;61.85
47218;BME280;47282;53.362;-2.222;2022-09-01T04:03:32;101597.75;;;13.07;61.98
47218;BME280;47282;53.362;-2.222;2022-09-01T04:06:01;101598.97;;;12.76;62.04
47218;BME280;47282;53.362;-2.222;2022-09-01T04:08:29;101595.77;;;12.68;62.06
47218;BME280;47282;53.362;-2.222;2022-09-01T04:10:59;101590.86;;;12.88;62.18
47218;BME280;47282;53.362;-2.222;2022-09-01T04:13:32;101585.94;;;12.84;62.22
47218;BME280;47282;53.362;-2.222;2022-09-01T04:16:02;101583.30;;;12.30;62.23
47218;BME280;47282;53.362;-2.222;2022-09-01T04:18:30;101583.39;;;12.72;62.24
47218;BME280;47282;53.362;-2.222;2022-09-01T04:20:59;101581.06;;;12.66;62.32
47218;BME280;47282;53.362;-2.222;2022-09-01T04:23:28;101578.30;;;12.59;62.40
47218;BME280;47282;53.362;-2.222;2022-09-01T04:25:59;101579.37;;;12.54;62.50
47218;BME280;47282;53.362;-2.222;2022-09-01T04:28:32;101575.33;;;12.50;62.63
47218;BME280;47282;53.362;-2.222;2022-09-01T04:31:02;101574.30;;;12.19;62.62
47218;BME280;47282;53.362;-2.222;2022-09-01T04:33:31;101572.80;;;12.41;62.64
47218;BME280;47282;53.362;-2.222;2022-09-01T04:36:00;101576.17;;;12.37;62.80
47218;BME280;47282;53.362;-2.222;2022-09-01T04:38:28;101573.92;;;12.33;62.86
47218;BME280;47282;53.362;-2.222;2022-09-01T04:40:57;101570.78;;;12.52;62.82
47218;BME280;47282;53.362;-2.222;2022-09-01T04:43:25;101567.87;;;12.24;62.86
47218;BME280;47282;53.362;-2.222;2022-09-01T04:45:53;101569.60;;;12.41;62.87
47218;BME280;47282;53.362;-2.222;2022-09-01T04:48:22;101568.59;;;12.14;62.93
47218;BME280;47282;53.362;-2.222;2022-09-01T04:50:50;101566.84;;;12.10;62.97
47218;BME280;47282;53.362;-2.222;2022-09-01T04:53:19;101566.09;;;12.04;63.03
47218;BME280;47282;53.362;-2.222;2022-09-01T04:55:47;101564.57;;;12.23;62.96
47218;BME280;47282;53.362;-2.222;2022-09-01T04:58:17;101564.10;;;11.93;62.97
47218;BME280;47282;53.362;-2.222;2022-09-01T05:00:48;101564.53;;;11.88;63.07
47218;BME280;47282;53.362;-2.222;2022-09-01T05:03:17;101561.25;;;12.07;63.08
47218;BME280;47282;53.362;-2.222;2022-09-01T05:05:46;101559.69;;;12.01;63.13
47218;BME280;47282;53.362;-2.222;2022-09-01T05:08:16;101557.78;;;12.20;63.19
47218;BME280;47282;53.362;-2.222;2022-09-01T05:10:48;101557.13;;;11.73;63.19
47218;BME280;47282;53.362;-2.222;2022-09-01T05:13:18;101557.66;;;11.91;63.19
47218;BME280;47282;53.362;-2.222;2022-09-01T05:15:59;101552.76;;;12.12;63.24
47218;BME280;47282;53.362;-2.222;2022-09-01T05:18:28;101554.58;;;12.12;63.31
47218;BME280;47282;53.362;-2.222;2022-09-01T05:20:56;101555.18;;;11.92;63.34
47218;BME280;47282;53.362;-2.222;2022-09-01T05:23:25;101555.24;;;11.94;63.37
47218;BME280;47282;53.362;-2.222;2022-09-01T05:25:53;101555.32;;;11.76;63.48
47218;BME280;47282;53.362;-2.222;2022-09-01T05:28:21;101552.74;;;11.81;63.58
47218;BME280;47282;53.362;-2.222;2022-09-01T05:30:50;101554.13;;;12.09;63.62
47218;BME280;47282;53.362;-2.222;2022-09-01T05:33:18;101549.50;;;12.15;63.64
47218;BME280;47282;53.362;-2.222;2022-09-01T05:35:54;101549.94;;;12.27;63.61
47218;BME280;47282;53.362;-2.222;2022-09-01T05:38:22;101545.66;;;12.33;63.33
47218;BME280;47282;53.362;-2.222;2022-09-01T05:40:59;101547.14;;;12.58;63.15
47218;BME280;47282;53.362;-2.222;2022-09-01T05:43:28;101545.61;;;12.71;63.08
47218;BME280;47282;53.362;-2.222;2022-09-01T05:45:57;101546.08;;;12.80;62.94
47218;BME280;47282;53.362;-2.222;2022-09-01T05:48:25;101543.91;;;12.86;62.92
47218;BME280;47282;53.362;-2.222;2022-09-01T05:50:54;101545.75;;;12.55;62.73
47218;BME280;47282;53.362;-2.222;2022-09-01T05:53:22;101546.05;;;13.11;62.36
47218;BME280;47282;53.362;-2.222;2022-09-01T05:55:51;101541.95;;;13.53;62.24
47218;BME280;47282;53.362;-2.222;2022-09-01T05:58:20;101541.42;;;13.41;62.07
47218;BME280;47282;53.362;-2.222;2022-09-01T06:00:48;101540.62;;;13.41;61.72
47218;BME280;47282;53.362;-2.222;2022-09-01T06:03:17;101539.67;;;13.53;61.64
47218;BME280;47282;53.362;-2.222;2022-09-01T12:10:18;101369.94;;;36.82;18.17
47218;BME280;47282;53.362;-2.222;2022-09-01T12:12:48;101373.54;;;38.63;17.11
47218;BME280;47282;53.362;-2.222;2022-09-01T12:15:20;101368.22;;;39.30;16.30
47218;BME280;47282;53.362;-2.222;2022-09-01T12:17:48;101370.87;;;39.98;15.90
47218;BME280;47282;53.362;-2.222;2022-09-01T12:20:21;101369.11;;;40.56;15.57
47218;BME280;47282;53.362;-2.222;2022-09-01T12:22:50;101366.84;;;40.78;15.42
47218;BME280;47282;53.362;-2.222;2022-09-01T12:25:21;101358.38;;;38.26;16.61
47218;BME280;47282;53.362;-2.222;2022-09-01T12:27:50;101361.00;;;36.98;17.18
47218;BME280;47282;53.362;-2.222;2022-09-01T12:30:19;101357.36;;;38.43;16.14
47218;BME280;47282;53.362;-2.222;2022-09-01T12:32:48;101362.30;;;38.50;16.05
47218;BME280;47282;53.362;-2.222;2022-09-01T12:35:20;101357.30;;;38.77;15.88
47218;BME280;47282;53.362;-2.222;2022-09-01T12:37:49;101360.07;;;38.87;15.62
47218;BME280;47282;53.362;-2.222;2022-09-01T12:40:30;101353.52;;;38.66;15.61
47218;BME280;47282;53.362;-2.222;2022-09-01T12:42:58;101345.08;;;38.84;15.62
47218;BME280;47282;53.362;-2.222;2022-09-01T12:45:43;101346.68;;;39.23;15.41
47218;BME280;47282;53.362;-2.222;2022-09-01T12:48:29;101338.68;;;39.44;15.43
47218;BME280;47282;53.362;-2.222;2022-09-01T12:50:59;101333.26;;;38.21;16.05
47218;BME280;47282;53.362;-2.222;2022-09-01T12:53:29;101340.40;;;38.99;15.38
47218;BME280;47282;53.362;-2.222;2022-09-01T12:56:14;101333.71;;;38.67;15.51
47218;BME280;47282;53.362;-2.222;2022-09-01T12:58:47;101333.62;;;37.99;15.72
47218;BME280;47282;53.362;-2.222;2022-09-01T13:01:26;101330.92;;;34.44;17.60
47218;BME280;47282;53.362;-2.222;2022-09-01T13:04:14;101329.64;;;33.27;18.47
47218;BME280;47282;53.362;-2.222;2022-09-01T13:06:49;101324.65;;;32.73;18.87
47218;BME280;47282;53.362;-2.222;2022-09-01T13:09:18;101323.57;;;32.48;19.08
47218;BME280;47282;53.362;-2.222;2022-09-01T13:11:46;101313.55;;;32.40;19.18
47218;BME280;47282;53.362;-2.222;2022-09-01T13:14:15;101309.36;;;32.28;19.17
47218;BME280;47282;53.362;-2.222;2022-09-01T13:16:44;101306.63;;;32.40;19.14
47218;BME280;47282;53.362;-2.222;2022-09-01T13:19:12;101308.07;;;32.28;19.09
47218;BME280;47282;53.362;-2.222;2022-09-01T13:21:40;101304.87;;;32.60;18.91
47218;BME280;47282;53.362;-2.222;2022-09-01T13:24:08;101297.33;;;32.50;19.15
47218;BME280;47282;53.362;-2.222;2022-09-01T13:26:37;101294.04;;;31.14;20.15
47218;BME280;47282;53.362;-2.222;2022-09-01T13:29:05;101290.18;;;29.97;20.97
47218;BME280;47282;53.362;-2.222;2022-09-01T13:31:33;101287.91;;;30.00;20.87
47218;BME280;47282;53.362;-2.222;2022-09-01T13:34:01;101282.57;;;30.79;20.26
47218;BME280;47282;53.362;-2.222;2022-09-01T13:36:29;101278.94;;;31.33;19.69
47218;BME280;47282;53.362;-2.222;2022-09-01T13:38:57;101276.25;;;31.89;19.40
47218;BME280;47282;53.362;-2.222;2022-09-01T13:41:25;101267.98;;;32.66;19.17
47218;BME280;47282;53.362;-2.222;2022-09-01T13:43:53;101266.11;;;33.17;18.93
47218;BME280;47282;53.362;-2.222;2022-09-01T13:46:21;101266.59;;;33.19;18.98
47218;BME280;47282;53.362;-2.222;2022-09-01T13:48:49;101255.71;;;32.97;18.94
47218;BME280;47282;53.362;-2.222;2022-09-01T13:51:24;101256.92;;;33.57;18.96
47218;BME280;47282;53.362;-2.222;2022-09-01T13:53:52;101258.26;;;33.18;18.98
47218;BME280;47282;53.362;-2.222;2022-09-01T13:56:20;101252.95;;;33.32;19.02
47218;BME280;47282;53.362;-2.222;2022-09-01T13:58:48;101256.02;;;33.39;19.01
47218;BME280;47282;53.362;-2.222;2022-09-01T14:01:16;101253.39;;;33.33;18.85
47218;BME280;47282;53.362;-2.222;2022-09-01T14:03:44;101247.97;;;33.32;18.92
47218;BME280;47282;53.362;-2.222;2022-09-01T14:06:12;101253.66;;;33.42;18.71
47218;BME280;47282;53.362;-2.222;2022-09-01T14:08:40;101248.33;;;33.59;18.62
47218;BME280;47282;53.362;-2.222;2022-09-01T14:11:16;101239.90;;;33.97;18.40
47218;BME280;47282;53.362;-2.222;2022-09-01T14:13:45;101245.34;;;34.38;18.36
47218;BME280;47282;53.362;-2.222;2022-09-01T14:16:13;101239.12;;;33.48;18.65
47218;BME280;47282;53.362;-2.222;2022-09-01T14:18:41;101241.12;;;32.88;19.08
47218;BME280;47282;53.362;-2.222;2022-09-01T14:21:12;101242.76;;;31.70;19.72
47218;BME280;47282;53.362;-2.222;2022-09-01T14:23:40;101240.29;;;30.85;20.24
47218;BME280;47282;53.362;-2.222;2022-09-01T14:26:10;101234.68;;;31.34;20.24
47218;BME280;47282;53.362;-2.222;2022-09-01T14:28:41;101231.10;;;31.78;19.88
47218;BME280;47282;53.362;-2.222;2022-09-01T14:31:11;101236.41;;;31.85;19.86
47218;BME280;47282;53.362;-2.222;2022-09-01T14:33:40;101238.43;;;31.08;20.42
47218;BME280;47282;53.362;-2.222;2022-09-01T14:36:16;101234.47;;;30.30;21.22
47218;BME280;47282;53.362;-2.222;2022-09-01T14:38:45;101232.96;;;29.18;21.87
47218;BME280;47282;53.362;-2.222;2022-09-01T14:41:13;101232.38;;;29.73;21.53
47218;BME280;47282;53.362;-2.222;2022-09-01T14:43:42;101223.35;;;30.11;21.24
47218;BME280;47282;53.362;-2.222;2022-09-01T14:46:10;101220.16;;;30.47;20.91
47218;BME280;47282;53.362;-2.222;2022-09-01T14:48:38;101210.54;;;31.00;20.60
47218;BME280;47282;53.362;-2.222;2022-09-01T14:51:08;101215.84;;;31.04;20.51
47218;BME280;47282;53.362;-2.222;2022-09-01T14:53:36;101203.83;;;31.48;20.23
47218;BME280;47282;53.362;-2.222;2022-09-01T14:56:05;101201.68;;;31.69;20.14
47218;BME280;47282;53.362;-2.222;2022-09-01T14:58:33;101200.57;;;31.70;20.18
47218;BME280;47282;53.362;-2.222;2022-09-01T15:01:01;101197.13;;;31.36;20.15
47218;BME280;47282;53.362;-2.222;2022-09-01T15:03:29;101198.04;;;31.58;19.98
47218;BME280;47282;53.362;-2.222;2022-09-01T15:05:57;101200.56;;;31.43;20.13
47218;BME280;47282;53.362;-2.222;2022-09-01T15:08:25;101198.65;;;31.32;20.11
47218;BME280;47282;53.362;-2.222;2022-09-01T15:10:53;101195.61;;;31.37;20.20
47218;BME280;47282;53.362;-2.222;2022-09-01T15:13:21;101191.90;;;31.48;20.16
47218;BME280;47282;53.362;-2.222;2022-09-01T15:15:49;101193.49;;;31.62;20.13
47218;BME280;47282;53.362;-2.222;2022-09-01T15:18:17;101195.93;;;31.62;20.17
47218;BME280;47282;53.362;-2.222;2022-09-01T15:20:45;101191.58;;;31.53;20.23
47218;BME280;47282;53.362;-2.222;2022-09-01T15:23:16;101187.37;;;31.39;20.24
47218;BME280;47282;53.362;-2.222;2022-09-01T15:25:45;101178.36;;;31.15;20.31
47218;BME280;47282;53.362;-2.222;2022-09-01T15:28:13;101177.04;;;30.98;20.48
47218;BME280;47282;53.362;-2.222;2022-09-01T15:30:42;101174.68;;;30.88;20.54
47218;BME280;47282;53.362;-2.222;2022-09-01T15:33:11;101170.95;;;31.06;20.66
47218;BME280;47282;53.362;-2.222;2022-09-01T15:35:39;101178.71;;;31.04;20.74
47218;BME280;47282;53.362;-2.222;2022-09-01T15:38:07;101165.40;;;30.54;20.70
47218;BME280;47282;53.362;-2.222;2022-09-01T15:40:39;101163.71;;;30.73;20.75
47218;BME280;47282;53.362;-2.222;2022-09-01T15:43:07;101162.92;;;30.56;20.89
47218;BME280;47282;53.362;-2.222;2022-09-01T15:45:35;101162.69;;;30.46;20.97
47218;BME280;47282;53.362;-2.222;2022-09-01T15:48:04;101159.48;;;30.13;21.11
47218;BME280;47282;53.362;-2.222;2022-09-01T15:50:32;101150.39;;;30.53;21.05
47218;BME280;47282;53.362;-2.222;2022-09-01T15:53:02;101150.52;;;30.72;20.99
47218;BME280;47282;53.362;-2.222;2022-09-01T15:55:38;101151.31;;;30.85;21.01
47218;BME280;47282;53.362;-2.222;2022-09-01T15:58:07;101145.99;;;30.52;21.18
47218;BME280;47282;53.362;-2.222;2022-09-01T16:00:35;101142.23;;;30.81;21.46
47218;BME280;47282;53.362;-2.222;2022-09-01T16:03:04;101142.58;;;30.10;21.92
47218;BME280;47282;53.362;-2.222;2022-09-01T16:05:33;101141.25;;;29.38;22.55
47218;BME280;47282;53.362;-2.222;2022-09-01T16:08:04;101135.88;;;28.35;23.27
47218;BME280;47282;53.362;-2.222;2022-09-01T16:10:32;101133.60;;;27.73;23.98
47218;BME280;47282;53.362;-2.222;2022-09-01T16:13:01;101133.14;;;27.27;24.64
47218;BME280;47282;53.362;-2.222;2022-09-01T16:15:29;101132.02;;;26.43;25.28
47218;BME280;47282;53.362;-2.222;2022-09-01T16:18:08;101129.73;;;25.94;25.66
47218;BME280;47282;53.362;-2.222;2022-09-01T16:20:49;101129.58;;;25.51;26.03
47218;BME280;47282;53.362;-2.222;2022-09-01T16:23:22;101127.09;;;25.35;26.20
47218;BME280;47282;53.362;-2.222;2022-09-01T16:25:52;101123.45;;;25.25;26.38
47218;BME280;47282;53.362;-2.222;2022-09-01T16:28:26;101127.39;;;25.31;26.54
47218;BME280;47282;53.362;-2.222;2022-09-01T16:30:58;101127.31;;;25.52;26.63
47218;BME280;47282;53.362;-2.222;2022-09-01T16:33:31;101127.58;;;25.43;27.25
47218;BME280;47282;53.362;-2.222;2022-09-01T16:36:09;101123.69;;;25.24;27.47
47218;BME280;47282;53.362;-2.222;2022-09-01T16:38:46;101120.59;;;24.82;28.06
47218;BME280;47282;53.362;-2.222;2022-09-01T16:41:27;101119.98;;;24.27;28.33
47218;BME280;47282;53.362;-2.222;2022-09-01T16:44:08;101120.23;;;24.34;28.55
47218;BME280;47282;53.362;-2.222;2022-09-01T16:46:41;101116.14;;;24.14;28.75
47218;BME280;47282;53.362;-2.222;2022-09-01T16:49:13;101108.12;;;23.84;28.81
47218;BME280;47282;53.362;-2.222;2022-09-01T16:51:54;101116.60;;;24.35;29.15
47218;BME280;47282;53.362;-2.222;2022-09-01T16:54:30;101116.06;;;24.19;29.43
47218;BME280;47282;53.362;-2.222;2022-09-01T16:57:07;101122.66;;;23.75;30.33
47218;BME280;47282;53.362;-2.222;2022-09-01T16:59:44;101119.78;;;23.34;30.46
47218;BME280;47282;53.362;-2.222;2022-09-01T17:02:24;101119.10;;;23.46;30.49
47218;BME280;47282;53.362;-2.222;2022-09-01T17:05:00;101122.47;;;23.08;30.55
47218;BME280;47282;53.362;-2.222;2022-09-01T17:07:35;101119.74;;;23.12;31.00
47218;BME280;47282;53.362;-2.222;2022-09-01T17:10:13;101117.83;;;23.23;31.15
47218;BME280;47282;53.362;-2.222;2022-09-01T17:12:46;101116.38;;;22.82;31.48
47218;BME280;47282;53.362;-2.222;2022-09-01T17:15:17;101114.62;;;22.97;31.56
47218;BME280;47282;53.362;-2.222;2022-09-01T17:17:52;101115.75;;;22.87;31.63
47218;BME280;47282;53.362;-2.222;2022-09-01T17:20:24;101116.46;;;22.54;31.74
47218;BME280;47282;53.362;-2.222;2022-09-01T17:22:58;101114.82;;;22.77;31.90
47218;BME280;47282;53.362;-2.222;2022-09-01T17:25:30;101117.68;;;22.72;32.36
47218;BME280;47282;53.362;-2.222;2022-09-01T17:28:00;101113.76;;;22.65;32.58
47218;BME280;47282;53.362;-2.222;2022-09-01T17:30:30;101119.91;;;22.58;32.73
47218;BME280;47282;53.362;-2.222;2022-09-01T17:33:07;101116.26;;;22.45;33.24
47218;BME280;47282;53.362;-2.222;2022-09-01T17:35:44;101113.19;;;22.27;33.37
47218;BME280;47282;53.362;-2.222;2022-09-01T17:38:24;101114.81;;;22.08;33.43
47218;BME280;47282;53.362;-2.222;2022-09-01T17:41:03;101108.92;;;21.90;33.59
47218;BME280;47282;53.362;-2.222;2022-09-01T17:43:46;101108.80;;;21.72;33.77
47218;BME280;47282;53.362;-2.222;2022-09-01T17:46:24;101112.38;;;21.54;33.85
47218;BME280;47282;53.362;-2.222;2022-09-01T17:49:04;101112.56;;;21.59;33.94
47218;BME280;47282;53.362;-2.222;2022-09-01T17:51:40;101113.15;;;21.46;34.29
47218;BME280;47282;53.362;-2.222;2022-09-01T17:54:17;101118.33;;;21.53;34.45
47218;BME280;47282;53.362;-2.222;2022-09-01T17:56:54;101119.06;;;21.35;34.61
47218;BME280;47282;53.362;-2.222;2022-09-01T17:59:27;101121.96;;;20.99;34.79
47218;BME280;47282;53.362;-2.222;2022-09-01T18:02:13;101122.10;;;21.09;34.90
47218;BME280;47282;53.362;-2.222;2022-09-01T18:05:00;101124.35;;;20.95;35.10
47218;BME280;47282;53.362;-2.222;2022-09-01T18:07:44;101128.23;;;20.85;35.45
47218;BME280;47282;53.362;-2.222;2022-09-01T18:10:20;101127.09;;;20.72;35.60
47218;BME280;47282;53.362;-2.222;2022-09-01T18:12:59;101124.73;;;20.54;36.28
47218;BME280;47282;53.362;-2.222;2022-09-01T18:15:36;101123.28;;;20.37;36.43
47218;BME280;47282;53.362;-2.222;2022-09-01T18:18:22;101128.90;;;20.48;36.37
47218;BME280;47282;53.362;-2.222;2022-09-01T18:20:58;101129.10;;;20.31;36.76
47218;BME280;47282;53.362;-2.222;2022-09-01T18:23:30;101127.50;;;20.18;36.75
47218;BME280;47282;53.362;-2.222;2022-09-01T18:26:07;101130.25;;;20.06;36.89
47218;BME280;47282;53.362;-2.222;2022-09-01T18:28:36;101129.26;;;20.14;37.21
47218;BME280;47282;53.362;-2.222;2022-09-01T18:31:12;101129.31;;;20.00;37.51
47218;BME280;47282;53.362;-2.222;2022-09-01T18:33:54;101130.95;;;19.63;37.76
47218;BME280;47282;53.362;-2.222;2022-09-01T18:36:32;101126.29;;;19.69;37.91
47218;BME280;47282;53.362;-2.222;2022-09-01T18:39:08;101128.43;;;19.81;38.35
47218;BME280;47282;53.362;-2.222;2022-09-01T18:41:47;101126.38;;;19.38;38.53
47218;BME280;47282;53.362;-2.222;2022-09-01T18:44:27;101125.52;;;19.21;39.15
47218;BME280;47282;53.362;-2.222;2022-09-01T18:47:03;101123.56;;;19.54;39.10
47218;BME280;47282;53.362;-2.222;2022-09-01T18:49:44;101120.60;;;19.17;39.61
47218;BME280;47282;53.362;-2.222;2022-09-01T18:52:23;101125.56;;;19.02;39.76
47218;BME280;47282;53.362;-2.222;2022-09-01T18:55:00;101122.96;;;19.09;39.86
47218;BME280;47282;53.362;-2.222;2022-09-01T18:57:35;101122.03;;;18.70;40.12
47218;BME280;47282;53.362;-2.222;2022-09-01T19:00:11;101120.65;;;18.76;40.58
47218;BME280;47282;53.362;-2.222;2022-09-01T19:02:57;101125.67;;;18.64;40.33
47218;BME280;47282;53.362;-2.222;2022-09-01T19:05:37;101125.60;;;18.50;40.57